Time;durP1;ratioP1;P1;durP2;ratioP2;P2;SDS_P1;SDS_P2;PMS_P1;PMS_P2;Temp;Humidity;BMP_temperature;BMP_pressure;BME280_temperature;BME280_humidity;BME280_pressure;Samples;Min_cycle;Max_cycle;Signal;HPM_P1;HPM_P2
2021/08/09 00:02:14;;;;;;;4.65;3.28;;;22.00;78.50;;;;;;5034963;28;20025;-74
2021/08/09 00:04:40;;;;;;;4.32;3.20;;;22.00;78.70;;;;;;5034808;28;20087;-74
2021/08/09 00:07:09;;;;;;;7.32;3.55;;;21.90;78.80;;;;;;5033353;28;20049;-74
2021/08/09 00:09:35;;;;;;;5.45;3.45;;;21.90;78.90;;;;;;5034655;28;20021;-74
2021/08/09 00:12:01;;;;;;;4.82;3.42;;;21.90;79.00;;;;;;5034654;28;20436;-74
2021/08/09 00:14:28;;;;;;;6.03;3.40;;;21.90;79.10;;;;;;5034673;28;20025;-75
2021/08/09 00:16:54;;;;;;;5.38;3.50;;;21.90;79.20;;;;;;5033787;28;20120;-75
2021/08/09 00:19:20;;;;;;;7.22;3.78;;;21.90;79.40;;;;;;5033544;28;20057;-74
2021/08/09 00:21:45;;;;;;;5.25;3.72;;;21.80;79.50;;;;;;5034534;28;20026;-78
2021/08/09 00:24:11;;;;;;;5.32;3.30;;;21.80;80.30;;;;;;5034374;28;20482;-74
2021/08/09 00:26:37;;;;;;;5.30;3.35;;;21.80;79.90;;;;;;5034431;28;20021;-74
2021/08/09 00:29:03;;;;;;;5.22;3.42;;;21.70;80.10;;;;;;5033122;28;20025;-74
2021/08/09 00:31:29;;;;;;;5.03;3.25;;;21.70;80.30;;;;;;5033730;28;20470;-74
2021/08/09 00:33:55;;;;;;;6.45;3.65;;;21.70;80.40;;;;;;5034222;28;20379;-74
2021/08/09 00:36:20;;;;;;;6.63;3.70;;;21.70;80.60;;;;;;5032961;28;20022;-74
2021/08/09 00:38:46;;;;;;;6.00;3.78;;;21.60;80.70;;;;;;5034115;28;20025;-74
2021/08/09 00:41:13;;;;;;;7.13;3.80;;;21.60;80.90;;;;;;5032997;28;20390;-74
2021/08/09 00:43:38;;;;;;;5.82;3.60;;;21.60;81.20;;;;;;5032706;28;20025;-74
2021/08/09 00:46:04;;;;;;;6.57;4.00;;;21.50;81.40;;;;;;5033848;28;20024;-74
2021/08/09 00:48:33;;;;;;;7.13;3.60;;;21.50;81.40;;;;;;5034059;28;20021;-74
2021/08/09 00:50:59;;;;;;;6.18;3.80;;;21.50;81.50;;;;;;5034142;28;20025;-74
2021/08/09 00:53:25;;;;;;;4.97;3.40;;;21.50;81.60;;;;;;5033954;28;20025;-74
2021/08/09 00:55:52;;;;;;;5.00;3.80;;;21.50;81.60;;;;;;5033923;28;20060;-74
2021/08/09 00:58:18;;;;;;;8.60;3.88;;;21.50;81.70;;;;;;5033709;28;20022;-74
2021/08/09 01:00:44;;;;;;;5.07;3.33;;;21.40;81.90;;;;;;5032862;28;20455;-74
2021/08/09 01:03:09;;;;;;;7.07;4.00;;;21.40;82.20;;;;;;5033931;28;20075;-74
2021/08/09 01:05:35;;;;;;;6.80;3.67;;;21.40;82.40;;;;;;5033882;28;20486;-74
2021/08/09 01:08:25;;;;;;;6.38;3.83;;;21.30;82.50;;;;;;5033794;28;20464;-74
2021/08/09 01:11:15;;;;;;;6.90;3.58;;;21.30;82.50;;;;;;5033847;28;20028;-73
2021/08/09 01:14:05;;;;;;;5.63;3.92;;;21.30;82.70;;;;;;5033872;28;20047;-74
2021/08/09 01:16:35;;;;;;;7.45;3.78;;;21.20;82.80;;;;;;5033872;28;20104;-74
2021/08/09 01:19:31;;;;;;;8.88;4.22;;;21.20;82.90;;;;;;5032579;28;20369;-74
2021/08/09 01:22:36;;;;;;;5.72;3.90;;;21.10;83.20;;;;;;5032375;28;20037;-74
2021/08/09 01:25:23;;;;;;;5.97;3.80;;;21.10;83.30;;;;;;5035040;28;20047;-73
2021/08/09 01:27:51;;;;;;;6.38;3.85;;;21.10;83.50;;;;;;5043263;28;20049;-74
2021/08/09 01:30:20;;;;;;;6.30;4.10;;;21.10;83.70;;;;;;5037645;28;20112;-74
2021/08/09 01:32:48;;;;;;;5.57;3.85;;;21.00;83.80;;;;;;5033787;28;20108;-73
2021/08/09 01:35:16;;;;;;;6.70;3.85;;;21.10;84.00;;;;;;5032299;28;20025;-73
2021/08/09 01:37:46;;;;;;;5.25;3.88;;;21.10;84.20;;;;;;5032334;28;20368;-74
2021/08/09 01:40:14;;;;;;;5.63;3.63;;;21.00;84.20;;;;;;5033545;28;20167;-73
2021/08/09 01:42:47;;;;;;;7.43;4.00;;;21.00;84.20;;;;;;5032956;28;20048;-73
2021/08/09 01:45:14;;;;;;;5.53;3.75;;;21.00;84.30;;;;;;5037759;28;20033;-74
2021/08/09 01:47:41;;;;;;;7.45;3.88;;;21.00;84.30;;;;;;5037458;28;20021;-74
2021/08/09 01:50:09;;;;;;;5.65;3.70;;;21.00;84.50;;;;;;5036099;28;20025;-74
2021/08/09 01:52:37;;;;;;;6.68;4.00;;;20.90;84.40;;;;;;5037224;28;20025;-74
2021/08/09 01:55:04;;;;;;;6.55;4.25;;;20.90;84.50;;;;;;5035762;28;20030;-74
2021/08/09 01:57:30;;;;;;;6.05;4.20;;;20.90;84.80;;;;;;5037210;28;20380;-74
2021/08/09 01:59:56;;;;;;;8.07;4.10;;;20.80;84.90;;;;;;5035929;28;20359;-74
2021/08/09 02:02:32;;;;;;;6.78;4.22;;;20.80;85.10;;;;;;5037256;28;20025;-74
2021/08/09 02:05:15;;;;;;;7.03;3.95;;;20.80;85.40;;;;;;5035724;28;20069;-74
2021/08/09 02:07:44;;;;;;;6.45;4.30;;;20.80;85.50;;;;;;5035418;28;20049;-75
2021/08/09 02:10:17;;;;;;;6.10;4.38;;;20.80;85.60;;;;;;5035706;28;20282;-74
2021/08/09 02:13:16;;;;;;;6.47;3.95;;;20.80;85.70;;;;;;5036988;28;20075;-74
2021/08/09 02:16:01;;;;;;;6.20;4.10;;;20.80;85.70;;;;;;5037128;28;20135;-74
2021/08/09 02:18:49;;;;;;;6.68;4.10;;;20.80;85.70;;;;;;5037230;28;20075;-74
2021/08/09 02:21:18;;;;;;;8.07;3.85;;;20.80;85.70;;;;;;5036837;28;20360;-74
2021/08/09 02:23:59;;;;;;;5.00;3.63;;;20.70;85.90;;;;;;5036607;28;20333;-74
2021/08/09 02:26:42;;;;;;;5.65;3.67;;;20.70;85.90;;;;;;5036726;28;20025;-74
2021/08/09 02:29:15;;;;;;;6.25;3.90;;;20.80;85.90;;;;;;5035562;28;20456;-74
2021/08/09 02:31:42;;;;;;;5.38;3.78;;;20.80;85.90;;;;;;5035268;28;20416;-74
2021/08/09 02:34:14;;;;;;;5.60;3.80;;;20.80;85.90;;;;;;5036467;28;20337;-74
2021/08/09 02:36:43;;;;;;;5.93;3.80;;;20.80;85.90;;;;;;5036309;28;20064;-74
2021/08/09 02:39:10;;;;;;;6.97;3.75;;;20.80;85.90;;;;;;5036253;28;20471;-74
2021/08/09 02:41:37;;;;;;;6.20;4.05;;;20.80;85.90;;;;;;5036318;28;20017;-74
2021/08/09 02:44:03;;;;;;;7.65;3.78;;;20.80;85.90;;;;;;5035033;28;20026;-74
2021/08/09 02:46:31;;;;;;;6.00;3.15;;;20.80;85.90;;;;;;5035013;28;20040;-74
2021/08/09 02:48:58;;;;;;;6.05;3.25;;;20.80;85.90;;;;;;5036011;28;20021;-74
2021/08/09 02:51:24;;;;;;;6.30;3.67;;;20.80;85.90;;;;;;5036506;28;20025;-74
2021/08/09 02:53:51;;;;;;;5.82;3.40;;;20.80;85.90;;;;;;5035015;28;20116;-74
2021/08/09 02:56:22;;;;;;;5.28;3.38;;;20.90;85.90;;;;;;5034594;28;20405;-74
2021/08/09 02:58:48;;;;;;;5.32;3.28;;;20.90;85.90;;;;;;5037539;28;20021;-73
2021/08/09 03:01:15;;;;;;;6.35;3.35;;;21.00;86.00;;;;;;5035985;28;20482;-73
2021/08/09 03:03:43;;;;;;;4.80;3.22;;;21.10;85.90;;;;;;5036979;28;20120;-74
2021/08/09 03:06:11;;;;;;;4.70;3.50;;;21.30;85.70;;;;;;5036619;28;20108;-74
2021/08/09 03:08:38;;;;;;;6.20;3.30;;;21.40;85.40;;;;;;5034546;28;20045;-74
2021/08/09 03:11:03;;;;;;;6.93;3.40;;;21.60;85.00;;;;;;5034488;28;20017;-74
2021/08/09 03:13:29;;;;;;;5.63;3.33;;;21.70;84.60;;;;;;5035858;28;20092;-74
2021/08/09 03:15:55;;;;;;;5.38;2.92;;;21.90;84.10;;;;;;5035469;28;20049;-74
2021/08/09 03:18:21;;;;;;;8.93;4.35;;;22.10;83.60;;;;;;5034385;28;20029;-74
2021/08/09 03:20:46;;;;;;;5.93;3.60;;;22.30;82.90;;;;;;5034752;28;20021;-74
2021/08/09 03:23:12;;;;;;;5.82;3.33;;;22.50;82.20;;;;;;5034353;28;20021;-74
2021/08/09 03:25:38;;;;;;;4.75;3.08;;;22.70;81.50;;;;;;5034169;28;20036;-74
2021/08/09 03:28:07;;;;;;;4.43;2.95;;;22.90;80.70;;;;;;5035473;28;20022;-74
2021/08/09 03:30:33;;;;;;;5.40;3.08;;;23.10;80.50;;;;;;5034136;28;20022;-74
2021/08/09 03:32:59;;;;;;;4.68;3.00;;;23.40;79.00;;;;;;5035291;28;20151;-75
2021/08/09 03:35:25;;;;;;;5.60;3.30;;;23.60;78.00;;;;;;5034740;28;20029;-74
2021/08/09 03:37:50;;;;;;;5.03;3.13;;;23.90;77.10;;;;;;5035408;28;20021;-75
2021/08/09 03:40:16;;;;;;;4.93;2.72;;;24.20;76.40;;;;;;5035053;28;20022;-75
2021/08/09 03:42:42;;;;;;;5.13;2.85;;;24.40;75.30;;;;;;5035258;28;20021;-74
2021/08/09 03:45:08;;;;;;;7.15;3.08;;;24.70;74.40;;;;;;5033579;28;20040;-74
2021/08/09 03:47:34;;;;;;;3.47;2.47;;;24.90;73.50;;;;;;5033469;28;20459;-75
2021/08/09 03:50:00;;;;;;;4.10;2.60;;;25.10;72.50;;;;;;5034972;28;20182;-73
2021/08/09 03:52:25;;;;;;;4.20;2.80;;;25.20;71.80;;;;;;5032393;28;20044;-80
2021/08/09 03:54:51;;;;;;;6.43;3.40;;;25.50;70.90;;;;;;5045479;28;20035;-80
2021/08/09 03:57:17;;;;;;;5.15;3.28;;;25.70;70.40;;;;;;5052755;28;20017;-79
2021/08/09 03:59:42;;;;;;;4.50;2.72;;;25.90;69.60;;;;;;5033116;28;20053;-78
2021/08/09 04:02:14;;;;;;;4.43;3.17;;;26.00;69.10;;;;;;5033825;28;20039;-79
2021/08/09 04:04:39;;;;;;;5.93;2.78;;;26.10;68.90;;;;;;5032936;28;20033;-79
2021/08/09 04:07:05;;;;;;;5.60;2.80;;;26.40;68.50;;;;;;5031194;28;20052;-79
2021/08/09 04:09:31;;;;;;;4.07;2.72;;;26.60;68.10;;;;;;5032581;28;20022;-80
2021/08/09 04:11:57;;;;;;;5.25;2.95;;;26.80;67.80;;;;;;5033736;28;20379;-79
2021/08/09 04:14:22;;;;;;;4.25;3.03;;;27.10;67.10;;;;;;5032379;28;20032;-80
2021/08/09 04:16:48;;;;;;;6.55;3.05;;;27.40;66.50;;;;;;5034449;28;20014;-79
2021/08/09 04:19:13;;;;;;;5.10;2.60;;;27.50;65.80;;;;;;5034461;28;20074;-79
2021/08/09 04:21:39;;;;;;;5.18;2.90;;;27.70;65.30;;;;;;5034731;28;20029;-79
2021/08/09 04:24:05;;;;;;;4.70;3.05;;;27.90;64.90;;;;;;5035859;28;20574;-80
2021/08/09 04:26:31;;;;;;;6.63;3.10;;;28.20;64.60;;;;;;5034404;28;20108;-79
2021/08/09 04:28:56;;;;;;;6.25;2.95;;;28.30;64.00;;;;;;5036154;28;20021;-79
2021/08/09 04:31:22;;;;;;;5.05;3.10;;;28.60;63.60;;;;;;5037352;28;20025;-79
2021/08/09 04:33:50;;;;;;;5.53;3.28;;;28.80;63.10;;;;;;5036725;28;20021;-79
2021/08/09 04:36:15;;;;;;;6.25;3.20;;;29.00;62.20;;;;;;5038362;28;20108;-77
2021/08/09 04:38:42;;;;;;;6.63;3.20;;;29.20;62.50;;;;;;5039162;28;20483;-79
2021/08/09 04:41:10;;;;;;;6.40;3.50;;;29.40;61.30;;;;;;5032579;28;20029;-78
2021/08/09 04:43:37;;;;;;;5.57;3.17;;;29.60;60.80;;;;;;5032845;28;20371;-74
2021/08/09 04:46:04;;;;;;;6.88;3.58;;;29.80;60.70;;;;;;5033362;28;20026;-81
2021/08/09 04:48:29;;;;;;;7.43;3.70;;;30.00;60.10;;;;;;5033214;28;20099;-81
2021/08/09 04:50:55;;;;;;;5.50;3.28;;;30.30;59.90;;;;;;5033159;28;20025;-78
2021/08/09 04:53:21;;;;;;;5.65;3.22;;;30.40;59.20;;;;;;5033380;28;20359;-78
2021/08/09 04:55:47;;;;;;;6.80;3.60;;;30.60;58.80;;;;;;5031195;28;20021;-78
2021/08/09 04:58:13;;;;;;;5.93;3.80;;;30.70;58.50;;;;;;5031369;28;20470;-79
2021/08/09 05:00:38;;;;;;;6.90;3.60;;;30.90;58.10;;;;;;5033783;28;20030;-79
2021/08/09 05:03:04;;;;;;;7.07;3.80;;;31.00;57.80;;;;;;5033708;28;20443;-79
2021/08/09 05:05:29;;;;;;;5.78;3.63;;;31.10;58.00;;;;;;5032028;28;20079;-78
2021/08/09 05:07:56;;;;;;;8.20;3.30;;;31.30;57.40;;;;;;5030486;28;20045;-73
2021/08/09 05:10:23;;;;;;;7.60;3.47;;;31.50;57.10;;;;;;5030834;28;20018;-73
2021/08/09 05:12:49;;;;;;;5.85;3.88;;;31.60;56.60;;;;;;5032016;28;20018;-74
2021/08/09 05:15:14;;;;;;;7.47;3.90;;;31.80;56.20;;;;;;5033555;28;20391;-72
2021/08/09 05:17:40;;;;;;;6.72;3.60;;;31.90;55.90;;;;;;5033527;28;20075;-73
2021/08/09 05:20:07;;;;;;;8.15;3.70;;;32.10;55.80;;;;;;5038623;28;20546;-70
2021/08/09 05:22:33;;;;;;;4.82;3.40;;;32.30;55.40;;;;;;5040041;28;20065;-71
2021/08/09 05:24:59;;;;;;;6.28;4.00;;;32.40;54.60;;;;;;5039896;28;20034;-72
2021/08/09 05:27:25;;;;;;;11.63;4.35;;;32.40;54.50;;;;;;5038686;28;20033;-72
2021/08/09 05:29:51;;;;;;;5.63;4.00;;;32.60;54.50;;;;;;5035568;28;20025;-73
2021/08/09 05:32:17;;;;;;;8.98;3.75;;;32.70;54.00;;;;;;5038673;28;20108;-73
2021/08/09 05:34:46;;;;;;;8.98;4.43;;;32.90;53.80;;;;;;5038968;28;20029;-73
2021/08/09 05:37:13;;;;;;;7.00;4.00;;;33.00;53.60;;;;;;5037249;28;20021;-74
2021/08/09 05:39:40;;;;;;;6.28;3.90;;;33.10;53.30;;;;;;5037204;28;20025;-74
2021/08/09 05:42:06;;;;;;;8.27;3.95;;;33.20;53.10;;;;;;5038947;28;20045;-74
2021/08/09 05:44:32;;;;;;;5.78;3.47;;;33.20;53.00;;;;;;5037546;28;20037;-75
2021/08/09 05:46:57;;;;;;;10.45;3.90;;;33.30;53.10;;;;;;5038915;28;20074;-74
2021/08/09 05:49:23;;;;;;;8.25;4.05;;;33.30;52.70;;;;;;5028557;28;20056;-71
2021/08/09 05:51:49;;;;;;;5.72;3.80;;;33.50;52.70;;;;;;5038688;28;20021;-72
2021/08/09 05:54:14;;;;;;;9.45;3.95;;;33.60;52.50;;;;;;5035810;28;20124;-72
2021/08/09 05:56:40;;;;;;;10.82;3.65;;;33.90;52.40;;;;;;5018254;28;20116;-72
2021/08/09 05:59:06;;;;;;;5.10;4.20;;;34.00;52.30;;;;;;5028259;28;20026;-73
2021/08/09 06:01:32;;;;;;;7.07;3.70;;;34.20;52.00;;;;;;5042635;28;20017;-72
2021/08/09 06:03:57;;;;;;;5.32;3.70;;;34.40;51.80;;;;;;5039601;28;20407;-73
2021/08/09 06:06:24;;;;;;;6.50;4.05;;;34.50;51.10;;;;;;5039992;28;20052;-73
2021/08/09 06:08:49;;;;;;;5.90;3.90;;;34.60;51.20;;;;;;5038980;28;20041;-72
2021/08/09 06:11:15;;;;;;;6.60;4.05;;;34.70;51.10;;;;;;5039529;28;20025;-70
2021/08/09 06:13:41;;;;;;;7.72;3.97;;;34.80;51.10;;;;;;5039187;28;20112;-74
2021/08/09 06:16:07;;;;;;;7.82;3.85;;;34.90;50.80;;;;;;5038778;28;20032;-76
2021/08/09 06:18:34;;;;;;;9.15;4.25;;;35.10;51.10;;;;;;5039705;28;20426;-80
2021/08/09 06:21:01;;;;;;;7.07;4.35;;;35.10;50.60;;;;;;5040088;28;20409;-80
2021/08/09 06:23:27;;;;;;;7.60;4.05;;;35.10;50.50;;;;;;5038423;28;20434;-75
2021/08/09 06:25:54;;;;;;;6.82;3.95;;;35.20;50.40;;;;;;5039607;28;20120;-72
2021/08/09 06:28:23;;;;;;;8.55;3.97;;;35.40;50.30;;;;;;5039750;28;20343;-69
2021/08/09 06:30:49;;;;;;;6.85;4.07;;;35.60;50.00;;;;;;5030775;28;20570;-69
2021/08/09 06:33:15;;;;;;;5.78;3.70;;;35.70;49.80;;;;;;5031870;28;20045;-68
2021/08/09 06:35:41;;;;;;;9.38;3.92;;;35.80;49.90;;;;;;5015387;28;20312;-69
2021/08/09 06:38:07;;;;;;;5.63;3.80;;;35.80;49.30;;;;;;5032214;28;20029;-69
2021/08/09 06:40:34;;;;;;;8.07;3.80;;;35.70;49.40;;;;;;5016413;28;20515;-69
2021/08/09 06:43:01;;;;;;;7.40;3.80;;;35.70;49.20;;;;;;5016511;28;20440;-68
2021/08/09 06:45:27;;;;;;;7.47;4.85;;;35.80;49.40;;;;;;5016249;28;20029;-68
2021/08/09 06:47:52;;;;;;;8.52;3.95;;;36.00;49.30;;;;;;5031353;28;20026;-68
2021/08/09 06:50:18;;;;;;;6.32;4.18;;;36.10;49.60;;;;;;5016319;28;20025;-69
2021/08/09 06:52:44;;;;;;;6.82;4.13;;;36.20;49.20;;;;;;5031296;28;20026;-68
2021/08/09 06:55:10;;;;;;;6.57;3.97;;;36.30;49.00;;;;;;5016088;28;20033;-69
2021/08/09 06:57:35;;;;;;;5.97;4.05;;;36.40;48.60;;;;;;5016038;28;20025;-69
2021/08/09 07:00:02;;;;;;;7.15;4.03;;;36.40;49.00;;;;;;5016126;28;20053;-69
2021/08/09 07:02:28;;;;;;;5.57;3.88;;;36.50;48.60;;;;;;5016395;28;20034;-69
2021/08/09 07:04:54;;;;;;;6.57;3.90;;;36.50;48.70;;;;;;5015990;28;20042;-69
2021/08/09 07:07:20;;;;;;;9.80;3.63;;;36.60;48.80;;;;;;5015703;28;20071;-68
2021/08/09 07:09:45;;;;;;;7.03;4.00;;;36.70;48.80;;;;;;5015950;28;20108;-68
2021/08/09 07:12:11;;;;;;;8.40;4.53;;;36.80;48.60;;;;;;5015656;28;20413;-69
2021/08/09 07:14:37;;;;;;;5.45;3.70;;;36.90;48.60;;;;;;5016000;28;20033;-69
2021/08/09 07:17:03;;;;;;;7.43;4.38;;;37.00;48.50;;;;;;5015951;28;20064;-68
2021/08/09 07:19:29;;;;;;;5.45;3.65;;;37.10;48.10;;;;;;5014535;28;20044;-69
2021/08/09 07:21:55;;;;;;;5.20;3.83;;;37.20;48.10;;;;;;5016609;28;20464;-69
2021/08/09 07:24:20;;;;;;;6.32;3.67;;;37.30;47.70;;;;;;5015505;28;20084;-69
2021/08/09 07:26:46;;;;;;;6.30;3.95;;;37.30;48.20;;;;;;5015738;28;20313;-69
2021/08/09 07:29:11;;;;;;;6.53;3.75;;;37.40;48.40;;;;;;5014457;28;20518;-69
2021/08/09 07:31:37;;;;;;;6.45;3.83;;;37.40;48.00;;;;;;5015575;28;20507;-68
2021/08/09 07:34:03;;;;;;;8.85;4.35;;;37.50;47.90;;;;;;5015693;28;20356;-69
2021/08/09 07:36:28;;;;;;;7.03;3.85;;;37.60;47.30;;;;;;5015810;28;20093;-69
2021/08/09 07:38:54;;;;;;;7.47;4.30;;;37.70;47.30;;;;;;5015273;28;20050;-68
2021/08/09 07:41:20;;;;;;;5.57;3.53;;;37.80;47.00;;;;;;5015413;28;20029;-69
2021/08/09 07:43:47;;;;;;;6.40;4.05;;;37.90;47.30;;;;;;5015351;28;20040;-69
2021/08/09 07:46:13;;;;;;;7.18;3.45;;;38.00;46.60;;;;;;5015411;28;20024;-69
2021/08/09 07:48:39;;;;;;;6.80;3.67;;;38.10;47.10;;;;;;5015318;28;20018;-69
2021/08/09 07:51:04;;;;;;;4.10;3.50;;;38.10;46.80;;;;;;5013768;28;20096;-69
2021/08/09 07:53:30;;;;;;;6.80;4.13;;;38.30;47.00;;;;;;5015229;28;20448;-69
2021/08/09 07:55:56;;;;;;;5.30;3.65;;;38.40;46.80;;;;;;5013680;28;20026;-69
2021/08/09 07:58:22;;;;;;;5.85;3.90;;;38.50;46.70;;;;;;5015288;28;20026;-69
2021/08/09 08:00:48;;;;;;;6.20;3.42;;;38.40;46.00;;;;;;5015418;28;20029;-69
2021/08/09 08:03:13;;;;;;;7.20;3.63;;;38.40;46.20;;;;;;5014847;28;20049;-69
2021/08/09 08:05:39;;;;;;;4.57;3.70;;;38.30;46.30;;;;;;5014949;28;20042;-69
2021/08/09 08:08:05;;;;;;;6.40;3.65;;;38.40;46.70;;;;;;5013625;28;20050;-69
2021/08/09 08:10:31;;;;;;;5.78;3.60;;;38.50;46.80;;;;;;5014742;28;20441;-69
2021/08/09 08:12:58;;;;;;;6.60;3.75;;;38.60;46.80;;;;;;5013573;28;20022;-69
2021/08/09 08:15:24;;;;;;;6.00;3.80;;;38.60;46.60;;;;;;5014716;28;20034;-69
2021/08/09 08:17:50;;;;;;;7.93;3.70;;;38.60;46.10;;;;;;5014773;28;20026;-69
2021/08/09 08:20:16;;;;;;;6.97;3.45;;;38.60;45.80;;;;;;5015010;28;20354;-69
2021/08/09 08:22:42;;;;;;;5.55;3.55;;;38.50;45.80;;;;;;5014872;28;20029;-69
2021/08/09 08:25:09;;;;;;;7.22;3.83;;;38.60;46.10;;;;;;5013575;28;20033;-69
2021/08/09 08:27:35;;;;;;;6.25;3.60;;;38.70;45.90;;;;;;5014467;28;20030;-69
2021/08/09 08:30:00;;;;;;;7.07;3.70;;;38.60;46.00;;;;;;5014671;28;20026;-69
2021/08/09 08:32:26;;;;;;;6.45;3.83;;;38.80;45.80;;;;;;5014571;28;20356;-70
2021/08/09 08:34:52;;;;;;;6.63;3.42;;;38.80;45.60;;;;;;5029505;28;20116;-69
2021/08/09 08:37:19;;;;;;;6.63;3.83;;;38.70;45.30;;;;;;5014332;28;20100;-69
2021/08/09 08:39:44;;;;;;;8.63;3.80;;;38.60;45.40;;;;;;5014391;28;20022;-70
2021/08/09 08:42:15;;;;;;;7.18;3.53;;;38.70;46.10;;;;;;5029611;28;20121;-69
2021/08/09 08:44:43;;;;;;;7.50;3.90;;;38.90;46.00;;;;;;5046226;28;20033;-69
2021/08/09 08:47:29;;;;;;;7.18;3.80;;;39.00;46.10;;;;;;5014340;28;20018;-69
2021/08/09 08:49:57;;;;;;;6.60;3.60;;;39.10;46.10;;;;;;5014573;28;20026;-69
2021/08/09 08:52:22;;;;;;;9.07;3.72;;;39.30;46.20;;;;;;5045718;28;20105;-69
2021/08/09 08:54:48;;;;;;;5.18;3.65;;;39.50;45.80;;;;;;5014383;28;20105;-69
2021/08/09 08:57:23;;;;;;;7.22;3.60;;;39.70;45.40;;;;;;5013953;28;20022;-69
2021/08/09 08:59:49;;;;;;;6.03;3.75;;;39.70;45.00;;;;;;5012481;28;20555;-69
2021/08/09 09:02:33;;;;;;;6.72;4.47;;;39.70;45.30;;;;;;5014353;28;20057;-69
2021/08/09 09:05:09;;;;;;;5.25;3.65;;;39.70;45.00;;;;;;5014158;28;20040;-69
2021/08/09 09:07:34;;;;;;;5.15;4.10;;;39.70;45.30;;;;;;5029006;28;20468;-69
2021/08/09 09:10:18;;;;;;;6.78;4.13;;;39.60;45.20;;;;;;5045448;28;20026;-69
2021/08/09 09:13:13;;;;;;;6.90;4.10;;;39.60;44.70;;;;;;5013206;28;20025;-69
2021/08/09 09:15:57;;;;;;;6.75;4.13;;;39.60;44.60;;;;;;5014140;28;20025;-69
2021/08/09 09:18:24;;;;;;;9.50;3.90;;;39.70;44.80;;;;;;5013960;28;20021;-69
2021/08/09 09:20:50;;;;;;;6.47;3.90;;;39.50;45.20;;;;;;5014288;28;20029;-69
2021/08/09 09:23:18;;;;;;;5.13;3.83;;;39.60;45.80;;;;;;5012906;28;20021;-69
2021/08/09 09:25:45;;;;;;;6.47;3.65;;;39.60;45.00;;;;;;5013771;28;20091;-69
2021/08/09 09:28:24;;;;;;;8.68;4.20;;;39.60;44.70;;;;;;5029093;28;20030;-69
2021/08/09 09:30:50;;;;;;;8.20;4.07;;;39.70;44.60;;;;;;5013815;28;20113;-69
2021/08/09 09:33:16;;;;;;;7.07;3.88;;;39.70;44.60;;;;;;5013780;28;20029;-69
2021/08/09 09:35:42;;;;;;;7.18;4.22;;;39.60;44.60;;;;;;5013886;28;20026;-69
2021/08/09 09:38:08;;;;;;;6.95;3.95;;;39.70;44.90;;;;;;5045542;28;20515;-69
2021/08/09 09:40:41;;;;;;;6.60;4.03;;;39.80;44.80;;;;;;5013679;28;20053;-69
2021/08/09 09:43:18;;;;;;;6.75;4.20;;;39.80;44.40;;;;;;5013692;28;20026;-69
2021/08/09 09:45:53;;;;;;;7.93;4.15;;;39.90;45.20;;;;;;5013925;28;20037;-69
2021/08/09 09:48:32;;;;;;;6.18;4.30;;;39.90;44.30;;;;;;5012407;28;20026;-69
2021/08/09 09:51:09;;;;;;;7.22;4.35;;;39.90;44.40;;;;;;5012872;28;20022;-69
2021/08/09 09:53:34;;;;;;;11.00;4.70;;;39.90;44.00;;;;;;5013759;28;20452;-69
2021/08/09 09:56:01;;;;;;;6.35;4.10;;;40.00;44.20;;;;;;5013300;28;20062;-69
2021/08/09 09:58:29;;;;;;;9.23;4.60;;;40.00;44.00;;;;;;5013608;28;20026;-69
2021/08/09 10:00:55;;;;;;;7.00;4.47;;;39.90;44.20;;;;;;5013408;28;20026;-69
2021/08/09 10:03:21;;;;;;;9.30;4.75;;;40.00;44.20;;;;;;5013783;28;20018;-69
2021/08/09 10:05:48;;;;;;;8.60;4.30;;;40.10;44.30;;;;;;5015042;28;20041;-69
2021/08/09 10:08:15;;;;;;;7.60;4.28;;;40.10;44.50;;;;;;5017629;28;20069;-70
2021/08/09 10:10:53;;;;;;;7.18;4.70;;;40.10;44.20;;;;;;5032334;28;20029;-70
2021/08/09 10:13:21;;;;;;;7.97;4.80;;;40.10;44.00;;;;;;5016394;28;20026;-70
2021/08/09 10:15:51;;;;;;;10.50;4.68;;;40.00;44.50;;;;;;5016864;28;20030;-70
2021/08/09 10:18:25;;;;;;;6.28;4.57;;;39.90;44.20;;;;;;5017288;28;20026;-70
2021/08/09 10:20:53;;;;;;;8.68;4.53;;;39.80;44.40;;;;;;5016981;28;20025;-70
2021/08/09 10:23:35;;;;;;;6.72;4.47;;;40.00;45.10;;;;;;5017171;28;20452;-70
2021/08/09 10:26:01;;;;;;;6.93;4.40;;;40.00;44.40;;;;;;5032409;28;20420;-70
2021/08/09 10:28:52;;;;;;;7.10;5.55;;;40.00;44.40;;;;;;5017107;28;20104;-70
2021/08/09 10:31:24;;;;;;;6.78;4.50;;;39.90;44.00;;;;;;5016583;28;20021;-70
2021/08/09 10:33:51;;;;;;;7.47;4.40;;;39.70;43.90;;;;;;5016753;28;20175;-70
2021/08/09 10:36:21;;;;;;;6.38;4.72;;;39.70;44.00;;;;;;5016692;28;20030;-70
2021/08/09 10:38:52;;;;;;;7.32;4.57;;;39.70;44.30;;;;;;5016657;28;20033;-69
2021/08/09 10:41:24;;;;;;;7.68;4.45;;;39.80;44.00;;;;;;5048482;28;20108;-69
2021/08/09 10:44:05;;;;;;;6.60;4.63;;;39.60;44.00;;;;;;5016220;28;20038;-69
2021/08/09 10:46:36;;;;;;;7.68;4.90;;;39.60;44.10;;;;;;5016303;28;20030;-69
2021/08/09 10:49:03;;;;;;;9.15;4.50;;;39.70;44.90;;;;;;5016481;28;20105;-69
2021/08/09 10:51:50;;;;;;;6.95;4.50;;;39.80;44.00;;;;;;5016440;28;20105;-69
2021/08/09 10:54:37;;;;;;;7.35;4.68;;;39.90;44.00;;;;;;5016310;28;20025;-70
2021/08/09 10:57:05;;;;;;;7.28;4.50;;;39.80;43.60;;;;;;5016684;28;20036;-69
2021/08/09 10:59:39;;;;;;;6.60;4.68;;;39.70;43.60;;;;;;5016352;28;20103;-70
2021/08/09 11:02:14;;;;;;;6.82;4.80;;;39.50;44.00;;;;;;5016284;28;20030;-69
2021/08/09 11:04:40;;;;;;;8.18;4.40;;;39.50;44.10;;;;;;5016156;28;20526;-70
2021/08/09 11:07:18;;;;;;;6.88;4.40;;;39.30;43.90;;;;;;5016422;28;20072;-69
2021/08/09 11:09:47;;;;;;;5.40;4.20;;;39.30;44.10;;;;;;5016144;28;20042;-70
2021/08/09 11:12:20;;;;;;;7.35;4.40;;;39.20;44.50;;;;;;5015926;28;20026;-70
2021/08/09 11:15:02;;;;;;;6.40;4.38;;;39.10;44.50;;;;;;5031450;28;20045;-70
2021/08/09 11:17:29;;;;;;;5.75;4.13;;;39.20;44.30;;;;;;5030756;28;20133;-70
2021/08/09 11:20:16;;;;;;;8.68;4.68;;;39.20;44.50;;;;;;5016210;28;20033;-70
2021/08/09 11:22:46;;;;;;;6.30;4.22;;;39.10;44.20;;;;;;5016017;28;20440;-70
2021/08/09 11:25:25;;;;;;;6.97;4.20;;;38.80;44.30;;;;;;5015606;28;20116;-69
2021/08/09 11:28:10;;;;;;;6.65;4.28;;;38.70;45.20;;;;;;5047549;28;20467;-69
2021/08/09 11:30:42;;;;;;;6.63;4.18;;;38.50;44.70;;;;;;5031343;28;20021;-69
2021/08/09 11:33:35;;;;;;;6.63;4.28;;;38.00;45.00;;;;;;5015669;28;20026;-69
2021/08/09 11:36:05;;;;;;;11.98;4.53;;;37.40;45.80;;;;;;5015593;28;20029;-69
2021/08/09 11:38:48;;;;;;;8.45;4.35;;;36.70;46.70;;;;;;5015346;28;20410;-69
2021/08/09 11:41:25;;;;;;;10.85;4.30;;;36.20;47.50;;;;;;5015586;28;20026;-69
2021/08/09 11:44:08;;;;;;;7.22;4.07;;;35.60;48.20;;;;;;5015503;28;20033;-69
2021/08/09 11:46:48;;;;;;;8.07;4.65;;;35.00;48.90;;;;;;5015521;28;20083;-69
2021/08/09 11:49:14;;;;;;;6.85;4.47;;;34.50;49.80;;;;;;5015440;28;20067;-69
2021/08/09 11:51:40;;;;;;;6.93;4.03;;;34.20;50.60;;;;;;5015300;28;20026;-69
2021/08/09 11:54:06;;;;;;;8.35;4.65;;;33.90;51.30;;;;;;5030314;28;20483;-69
2021/08/09 11:56:35;;;;;;;5.30;4.35;;;33.70;51.60;;;;;;5015242;28;20104;-69
2021/08/09 11:59:15;;;;;;;6.68;4.07;;;33.50;52.40;;;;;;5015413;28;20050;-69
2021/08/09 12:01:42;;;;;;;6.25;4.30;;;33.50;52.80;;;;;;5014188;28;20072;-69
2021/08/09 12:04:09;;;;;;;8.38;4.57;;;33.40;52.70;;;;;;5014990;28;20172;-69
2021/08/09 12:06:58;;;;;;;7.57;4.55;;;33.20;52.70;;;;;;5030206;28;20026;-69
2021/08/09 12:09:42;;;;;;;8.15;4.40;;;33.00;53.00;;;;;;5015302;28;20029;-69
2021/08/09 12:12:10;;;;;;;6.95;4.30;;;32.80;53.60;;;;;;5030625;28;20420;-68
2021/08/09 12:14:36;;;;;;;7.90;4.50;;;32.70;53.60;;;;;;5014772;28;20072;-69
2021/08/09 12:17:12;;;;;;;8.35;4.13;;;32.60;53.60;;;;;;5013652;28;20519;-68
2021/08/09 12:19:39;;;;;;;8.18;4.10;;;32.60;53.70;;;;;;5014889;28;20032;-68
2021/08/09 12:22:16;;;;;;;6.82;4.18;;;32.50;54.00;;;;;;5030415;28;20029;-69
2021/08/09 12:25:02;;;;;;;7.38;4.25;;;32.40;54.10;;;;;;5030319;28;20034;-69
2021/08/09 12:27:29;;;;;;;6.10;3.83;;;32.20;54.20;;;;;;5014125;28;20526;-69
2021/08/09 12:30:15;;;;;;;7.10;3.90;;;32.20;54.20;;;;;;5013249;28;20022;-69
2021/08/09 12:32:56;;;;;;;7.55;4.00;;;32.10;54.20;;;;;;5015020;28;20041;-69
2021/08/09 12:35:34;;;;;;;6.82;3.90;;;32.10;54.20;;;;;;5014837;28;20064;-69
2021/08/09 12:38:00;;;;;;;5.03;3.83;;;32.10;54.40;;;;;;5014583;28;20029;-69
2021/08/09 12:40:26;;;;;;;7.82;4.00;;;32.00;53.90;;;;;;5014501;28;20026;-69
2021/08/09 12:43:02;;;;;;;6.18;3.70;;;31.90;53.80;;;;;;5013690;28;20076;-69
2021/08/09 12:45:28;;;;;;;6.18;3.42;;;31.90;53.90;;;;;;5014624;28;20026;-69
2021/08/09 12:47:54;;;;;;;5.63;3.45;;;31.80;54.00;;;;;;5014321;28;20470;-69
2021/08/09 12:50:19;;;;;;;6.95;2.90;;;31.80;54.00;;;;;;5014303;28;20026;-69
2021/08/09 12:52:45;;;;;;;6.82;3.63;;;31.80;54.20;;;;;;5014400;28;20125;-69
2021/08/09 12:55:11;;;;;;;6.30;3.50;;;31.80;54.30;;;;;;5014063;28;20057;-69
2021/08/09 12:57:37;;;;;;;6.90;3.60;;;31.80;54.20;;;;;;5014212;28;20033;-69